createdAt,value
2022-10-15T01:15:23.947Z,100.00
2022-10-15T03:23:55.412Z,100.00
2022-10-15T03:28:59.429Z,100.00
2022-10-15T03:51:25.693Z,100.00
2022-10-15T03:56:38.068Z,100.00
2022-10-15T04:02:00.613Z,100.00
2022-10-15T04:07:03.955Z,100.00
2022-10-15T04:12:07.980Z,100.00
2022-10-15T04:17:10.253Z,100.00
2022-10-15T04:22:12.894Z,100.00
2022-10-15T04:27:23.445Z,100.00
2022-10-15T04:32:25.951Z,100.00
2022-10-15T04:37:28.473Z,100.00
2022-10-15T04:42:31.572Z,100.00
2022-10-15T04:47:34.876Z,100.00
2022-10-15T04:52:46.519Z,100.00
2022-10-15T04:57:48.976Z,100.00
2022-10-15T05:02:55.620Z,100.00
2022-10-15T05:08:07.408Z,100.00
2022-10-15T05:13:27.910Z,100.00
2022-10-15T05:18:31.381Z,100.00
2022-10-15T05:23:34.358Z,100.00
2022-10-15T05:29:04.596Z,100.00
2022-10-15T05:34:09.465Z,100.00
2022-10-15T05:39:20.019Z,100.00
2022-10-15T05:44:22.384Z,100.00
2022-10-15T05:49:24.674Z,100.00
2022-10-15T06:00:36.031Z,100.00
2022-10-15T06:06:06.239Z,100.00
2022-10-15T06:11:34.570Z,100.00
2022-10-15T06:16:44.765Z,100.00
2022-10-15T06:41:01.997Z,100.00
2022-10-15T06:47:20.820Z,100.00
2022-10-15T06:58:05.462Z,88.67
2022-10-15T07:03:08.195Z,74.59
2022-10-15T07:08:16.795Z,85.54
2022-10-15T07:13:35.588Z,90.08
2022-10-15T07:25:03.233Z,90.20
2022-10-15T07:54:01.688Z,100.00
2022-10-15T07:59:04.063Z,100.00
2022-10-15T08:04:09.286Z,100.00
2022-10-15T08:10:14.417Z,100.00
2022-10-15T08:15:42.830Z,100.00
2022-10-15T08:20:54.134Z,100.00
2022-10-15T08:26:03.051Z,100.00
2022-10-15T08:31:30.428Z,100.00
2022-10-15T08:42:36.215Z,100.00
2022-10-15T08:53:20.944Z,100.00
2022-10-15T09:04:22.142Z,100.00
2022-10-15T09:09:59.529Z,100.00
2022-10-15T09:15:41.707Z,100.00
2022-10-15T09:20:47.056Z,100.00
2022-10-15T09:26:12.475Z,100.00
2022-10-15T09:31:20.187Z,100.00
2022-10-15T09:36:34.938Z,100.00
2022-10-15T09:41:54.044Z,100.00
2022-10-15T09:47:37.241Z,100.00
2022-10-15T11:25:34.622Z,95.88
2022-10-15T11:30:49.159Z,94.79
2022-10-15T11:36:19.448Z,93.27
2022-10-15T11:41:33.688Z,87.63
2022-10-15T11:47:00.997Z,86.91
2022-10-15T11:52:54.544Z,83.50
2022-10-15T11:58:06.795Z,83.96
2022-10-15T12:03:19.579Z,84.33
2022-10-15T12:08:32.330Z,81.39
2022-10-15T12:13:43.386Z,82.16
2022-10-15T12:18:56.442Z,80.39
2022-10-15T12:24:05.651Z,80.63
2022-10-15T12:29:21.578Z,79.04
2022-10-15T12:34:42.663Z,77.02
2022-10-15T12:39:53.342Z,79.00
2022-10-15T12:44:59.172Z,79.36
2022-10-15T12:50:06.275Z,77.67
2022-10-15T13:53:50.672Z,83.79
2022-10-15T13:58:55.322Z,83.56
2022-10-15T14:03:59.999Z,84.10
2022-10-15T14:09:27.418Z,87.63
2022-10-15T14:14:35.811Z,87.72
2022-10-15T14:19:39.506Z,88.83
2022-10-15T14:24:41.971Z,89.06
2022-10-15T14:29:54.648Z,88.12
2022-10-15T14:35:02.073Z,89.59
2022-10-15T14:40:08.837Z,89.30
2022-10-15T14:45:18.775Z,92.41
2022-10-15T14:50:25.315Z,92.66
2022-10-15T14:55:38.270Z,93.60
2022-10-15T15:00:43.838Z,94.13
2022-10-15T15:05:53.061Z,100.00
2022-10-15T15:10:57.882Z,100.00
2022-10-15T15:16:00.557Z,100.00
2022-10-15T15:21:08.426Z,100.00
2022-10-15T15:26:16.906Z,100.00
2022-10-15T15:31:19.331Z,100.00
2022-10-15T15:36:23.823Z,100.00
2022-10-15T15:41:26.470Z,100.00
2022-10-15T15:46:28.715Z,99.70
2022-10-15T15:57:09.160Z,100.00
2022-10-15T16:02:13.125Z,100.00
2022-10-15T16:07:41.318Z,100.00
2022-10-15T16:13:00.866Z,100.00
2022-10-15T16:31:30.266Z,100.00
2022-10-15T16:42:06.556Z,100.00
2022-10-15T16:47:08.902Z,100.00
2022-10-15T16:52:11.602Z,100.00
2022-10-15T16:57:13.948Z,100.00
2022-10-15T17:02:16.250Z,100.00
2022-10-15T17:07:18.514Z,100.00
2022-10-15T17:12:20.840Z,100.00
2022-10-15T17:17:23.439Z,100.00
2022-10-15T17:22:26.631Z,100.00
2022-10-15T17:27:29.230Z,100.00
2022-10-15T17:32:31.523Z,100.00
2022-10-15T17:42:36.907Z,100.00
2022-10-15T17:47:39.395Z,100.00
2022-10-15T17:52:41.685Z,100.00
2022-10-15T17:57:43.942Z,100.00
2022-10-15T18:02:49.709Z,100.00
2022-10-15T18:07:52.035Z,100.00
2022-10-15T18:12:54.518Z,100.00
2022-10-15T18:17:56.927Z,100.00
2022-10-15T18:28:24.541Z,100.00
2022-10-15T18:33:27.079Z,100.00
2022-10-15T18:38:29.481Z,100.00
2022-10-15T18:43:32.035Z,100.00
2022-10-15T18:48:34.345Z,100.00
2022-10-15T18:53:40.595Z,100.00
2022-10-15T18:58:43.264Z,100.00
2022-10-15T19:03:45.664Z,100.00
2022-10-15T19:08:53.023Z,100.00
2022-10-15T19:13:58.613Z,100.00
2022-10-15T19:19:01.235Z,100.00
2022-10-15T19:24:13.310Z,100.00
2022-10-15T19:29:16.108Z,100.00
2022-10-15T19:34:23.007Z,100.00
2022-10-15T19:39:25.362Z,100.00
2022-10-15T19:44:28.011Z,100.00
2022-10-15T19:49:30.280Z,100.00
2022-10-15T19:54:32.675Z,100.00
2022-10-15T19:59:34.928Z,100.00
2022-10-15T20:04:37.227Z,100.00
2022-10-15T20:09:40.514Z,100.00
2022-10-15T20:14:42.993Z,100.00
2022-10-15T20:19:45.461Z,100.00
2022-10-15T20:24:47.893Z,100.00
2022-10-15T20:29:50.387Z,100.00
2022-10-15T20:34:52.647Z,100.00
2022-10-15T20:39:54.856Z,100.00
2022-10-15T20:44:57.089Z,100.00
2022-10-15T20:49:59.968Z,100.00
2022-10-15T20:55:02.211Z,100.00
2022-10-15T21:00:07.645Z,100.00
2022-10-15T21:05:10.575Z,100.00
2022-10-15T21:10:13.071Z,100.00
2022-10-15T21:15:15.679Z,100.00
2022-10-15T21:20:18.196Z,100.00
2022-10-15T21:25:20.774Z,100.00
2022-10-15T21:30:23.051Z,100.00
2022-10-15T21:35:25.585Z,100.00
2022-10-15T21:40:27.925Z,100.00
2022-10-15T21:45:30.640Z,100.00
2022-10-15T21:50:32.900Z,100.00
2022-10-15T21:55:35.242Z,100.00
2022-10-15T22:00:37.479Z,100.00
2022-10-15T22:05:40.136Z,100.00
2022-10-15T22:10:42.374Z,100.00
2022-10-15T22:15:44.717Z,100.00
2022-10-15T22:20:47.198Z,100.00
2022-10-15T22:25:58.454Z,100.00
2022-10-15T22:31:08.276Z,100.00
2022-10-15T22:36:20.005Z,100.00
2022-10-15T22:41:22.700Z,100.00
2022-10-15T22:46:25.784Z,100.00
2022-10-15T22:51:28.246Z,100.00
2022-10-15T22:56:31.279Z,100.00
2022-10-15T23:01:40.659Z,100.00
2022-10-15T23:06:43.481Z,100.00
2022-10-15T23:11:46.326Z,100.00
2022-10-15T23:16:48.810Z,100.00
2022-10-15T23:22:04.153Z,100.00
2022-10-15T23:27:06.761Z,100.00
2022-10-15T23:32:09.916Z,100.00
2022-10-15T23:37:12.182Z,100.00
2022-10-15T23:42:14.755Z,100.00
2022-10-15T23:47:17.095Z,100.00
2022-10-15T23:52:19.423Z,100.00
2022-10-15T23:57:21.822Z,100.00
